sensor_id;sensor_type;location;lat;lon;timestamp;temperature;humidity
71436;SHT31;59251;51.326;12.370;2023-07-31T00:01:36;15.98;88.42
71436;SHT31;59251;51.326;12.370;2023-07-31T00:04:03;16.03;88.39
71436;SHT31;59251;51.326;12.370;2023-07-31T00:06:30;16.03;88.06
71436;SHT31;59251;51.326;12.370;2023-07-31T00:08:58;16.04;87.90
71436;SHT31;59251;51.326;12.370;2023-07-31T00:11:24;16.10;87.77
71436;SHT31;59251;51.326;12.370;2023-07-31T00:13:52;16.07;87.52
71436;SHT31;59251;51.326;12.370;2023-07-31T00:16:19;16.11;87.12
71436;SHT31;59251;51.326;12.370;2023-07-31T00:18:46;16.16;87.12
71436;SHT31;59251;51.326;12.370;2023-07-31T00:21:12;16.11;86.78
71436;SHT31;59251;51.326;12.370;2023-07-31T00:23:39;16.16;86.72
71436;SHT31;59251;51.326;12.370;2023-07-31T00:26:07;16.14;86.57
71436;SHT31;59251;51.326;12.370;2023-07-31T00:28:34;16.14;86.57
71436;SHT31;59251;51.326;12.370;2023-07-31T00:31:00;16.14;86.61
71436;SHT31;59251;51.326;12.370;2023-07-31T00:33:30;16.14;86.71
71436;SHT31;59251;51.326;12.370;2023-07-31T00:35:57;16.11;86.51
71436;SHT31;59251;51.326;12.370;2023-07-31T00:38:25;16.17;86.71
71436;SHT31;59251;51.326;12.370;2023-07-31T00:40:52;16.10;86.57
71436;SHT31;59251;51.326;12.370;2023-07-31T00:43:20;16.13;86.37
71436;SHT31;59251;51.326;12.370;2023-07-31T00:45:47;16.14;86.61
71436;SHT31;59251;51.326;12.370;2023-07-31T00:48:13;16.16;86.58
71436;SHT31;59251;51.326;12.370;2023-07-31T00:50:41;16.16;86.71
71436;SHT31;59251;51.326;12.370;2023-07-31T00:53:07;16.22;86.37
71436;SHT31;59251;51.326;12.370;2023-07-31T00:55:34;16.41;85.17
71436;SHT31;59251;51.326;12.370;2023-07-31T00:58:01;16.54;84.31
71436;SHT31;59251;51.326;12.370;2023-07-31T01:00:29;16.62;83.81
71436;SHT31;59251;51.326;12.370;2023-07-31T01:02:56;16.68;83.61
71436;SHT31;59251;51.326;12.370;2023-07-31T01:05:27;16.68;83.11
71436;SHT31;59251;51.326;12.370;2023-07-31T01:07:59;16.71;83.41
71436;SHT31;59251;51.326;12.370;2023-07-31T01:10:34;16.75;82.86
71436;SHT31;59251;51.326;12.370;2023-07-31T01:13:03;16.77;82.95
71436;SHT31;59251;51.326;12.370;2023-07-31T01:15:31;16.79;82.94
71436;SHT31;59251;51.326;12.370;2023-07-31T01:17:58;16.77;82.82
71436;SHT31;59251;51.326;12.370;2023-07-31T01:20:26;16.72;83.19
71436;SHT31;59251;51.326;12.370;2023-07-31T01:23:30;16.68;83.71
71436;SHT31;59251;51.326;12.370;2023-07-31T01:26:07;16.71;83.36
71436;SHT31;59251;51.326;12.370;2023-07-31T01:28:44;16.62;84.06
71436;SHT31;59251;51.326;12.370;2023-07-31T01:31:15;16.69;83.54
71436;SHT31;59251;51.326;12.370;2023-07-31T01:33:43;16.59;83.70
71436;SHT31;59251;51.326;12.370;2023-07-31T01:36:11;16.59;83.53
71436;SHT31;59251;51.326;12.370;2023-07-31T01:38:38;16.62;83.44
71436;SHT31;59251;51.326;12.370;2023-07-31T01:41:06;16.58;83.72
71436;SHT31;59251;51.326;12.370;2023-07-31T01:43:33;16.59;83.60
71436;SHT31;59251;51.326;12.370;2023-07-31T01:46:00;16.56;83.71
71436;SHT31;59251;51.326;12.370;2023-07-31T01:48:27;16.49;84.51
71436;SHT31;59251;51.326;12.370;2023-07-31T01:50:53;16.42;84.76
71436;SHT31;59251;51.326;12.370;2023-07-31T01:53:20;16.40;85.05
71436;SHT31;59251;51.326;12.370;2023-07-31T01:55:47;16.31;85.91
71436;SHT31;59251;51.326;12.370;2023-07-31T01:58:15;16.25;86.12
71436;SHT31;59251;51.326;12.370;2023-07-31T02:00:41;16.18;86.17
71436;SHT31;59251;51.326;12.370;2023-07-31T02:03:08;16.27;85.84
71436;SHT31;59251;51.326;12.370;2023-07-31T02:05:35;16.18;86.57
71436;SHT31;59251;51.326;12.370;2023-07-31T02:08:01;16.22;86.56
71436;SHT31;59251;51.326;12.370;2023-07-31T02:10:28;16.21;86.55
71436;SHT31;59251;51.326;12.370;2023-07-31T02:12:55;16.25;86.19
71436;SHT31;59251;51.326;12.370;2023-07-31T02:15:24;16.34;85.03
71436;SHT31;59251;51.326;12.370;2023-07-31T02:17:51;16.36;85.47
71436;SHT31;59251;51.326;12.370;2023-07-31T02:20:17;16.34;85.62
71436;SHT31;59251;51.326;12.370;2023-07-31T02:22:45;16.42;85.59
71436;SHT31;59251;51.326;12.370;2023-07-31T02:25:12;16.45;85.12
71436;SHT31;59251;51.326;12.370;2023-07-31T02:27:38;16.42;85.28
71436;SHT31;59251;51.326;12.370;2023-07-31T02:30:06;16.44;85.52
71436;SHT31;59251;51.326;12.370;2023-07-31T02:32:34;16.51;85.22
71436;SHT31;59251;51.326;12.370;2023-07-31T02:35:02;16.49;85.22
71436;SHT31;59251;51.326;12.370;2023-07-31T02:37:28;16.44;85.50
71436;SHT31;59251;51.326;12.370;2023-07-31T02:39:55;16.45;85.25
71436;SHT31;59251;51.326;12.370;2023-07-31T02:42:22;16.52;85.16
71436;SHT31;59251;51.326;12.370;2023-07-31T02:44:48;16.48;85.51
71436;SHT31;59251;51.326;12.370;2023-07-31T02:47:21;16.45;85.45
71436;SHT31;59251;51.326;12.370;2023-07-31T02:49:49;16.44;85.71
71436;SHT31;59251;51.326;12.370;2023-07-31T02:52:16;16.42;85.63
71436;SHT31;59251;51.326;12.370;2023-07-31T02:54:43;16.44;85.69
71436;SHT31;59251;51.326;12.370;2023-07-31T02:57:10;16.44;85.99
71436;SHT31;59251;51.326;12.370;2023-07-31T02:59:37;16.32;86.56
71436;SHT31;59251;51.326;12.370;2023-07-31T03:02:03;16.31;86.81
71436;SHT31;59251;51.326;12.370;2023-07-31T03:04:30;16.44;86.58
71436;SHT31;59251;51.326;12.370;2023-07-31T03:06:58;16.32;86.99
71436;SHT31;59251;51.326;12.370;2023-07-31T03:09:26;16.31;87.07
71436;SHT31;59251;51.326;12.370;2023-07-31T03:11:53;16.34;87.34
71436;SHT31;59251;51.326;12.370;2023-07-31T03:14:19;16.28;87.39
71436;SHT31;59251;51.326;12.370;2023-07-31T03:16:46;16.28;87.32
71436;SHT31;59251;51.326;12.370;2023-07-31T03:19:13;16.28;87.47
71436;SHT31;59251;51.326;12.370;2023-07-31T03:21:40;16.25;87.49
71436;SHT31;59251;51.326;12.370;2023-07-31T03:24:08;16.25;87.83
71436;SHT31;59251;51.326;12.370;2023-07-31T03:26:35;16.21;87.99
71436;SHT31;59251;51.326;12.370;2023-07-31T03:29:02;16.20;87.95
71436;SHT31;59251;51.326;12.370;2023-07-31T03:31:28;16.17;87.97
71436;SHT31;59251;51.326;12.370;2023-07-31T03:33:55;16.22;87.78
71436;SHT31;59251;51.326;12.370;2023-07-31T03:36:22;16.24;88.03
71436;SHT31;59251;51.326;12.370;2023-07-31T03:38:48;16.20;88.02
71436;SHT31;59251;51.326;12.370;2023-07-31T03:41:16;16.20;88.47
71436;SHT31;59251;51.326;12.370;2023-07-31T03:43:46;16.18;88.54
71436;SHT31;59251;51.326;12.370;2023-07-31T03:46:12;16.11;88.98
71436;SHT31;59251;51.326;12.370;2023-07-31T03:48:39;16.13;89.18
71436;SHT31;59251;51.326;12.370;2023-07-31T03:51:06;16.13;89.13
71436;SHT31;59251;51.326;12.370;2023-07-31T03:53:33;16.10;89.64
71436;SHT31;59251;51.326;12.370;2023-07-31T03:55:59;16.11;89.37
71436;SHT31;59251;51.326;12.370;2023-07-31T03:58:27;16.14;89.11
71436;SHT31;59251;51.326;12.370;2023-07-31T04:00:54;16.17;88.72
71436;SHT31;59251;51.326;12.370;2023-07-31T04:03:20;16.16;89.06
71436;SHT31;59251;51.326;12.370;2023-07-31T04:05:47;16.17;89.20
71436;SHT31;59251;51.326;12.370;2023-07-31T04:08:14;16.16;89.23
71436;SHT31;59251;51.326;12.370;2023-07-31T04:10:40;16.14;89.38
71436;SHT31;59251;51.326;12.370;2023-07-31T04:13:07;16.20;89.34
71436;SHT31;59251;51.326;12.370;2023-07-31T04:15:35;16.14;89.18
71436;SHT31;59251;51.326;12.370;2023-07-31T04:18:02;16.20;89.17
71436;SHT31;59251;51.326;12.370;2023-07-31T04:20:29;16.20;89.17
71436;SHT31;59251;51.326;12.370;2023-07-31T04:22:55;16.20;89.23
71436;SHT31;59251;51.326;12.370;2023-07-31T04:25:22;16.18;89.41
71436;SHT31;59251;51.326;12.370;2023-07-31T04:27:49;16.24;89.43
71436;SHT31;59251;51.326;12.370;2023-07-31T04:30:15;16.24;89.43
71436;SHT31;59251;51.326;12.370;2023-07-31T04:32:43;16.22;90.07
71436;SHT31;59251;51.326;12.370;2023-07-31T04:35:10;16.20;89.85
71436;SHT31;59251;51.326;12.370;2023-07-31T04:37:37;16.20;89.97
71436;SHT31;59251;51.326;12.370;2023-07-31T04:40:05;16.17;90.61
71436;SHT31;59251;51.326;12.370;2023-07-31T04:42:32;16.21;90.74
71436;SHT31;59251;51.326;12.370;2023-07-31T04:44:59;16.17;91.00
71436;SHT31;59251;51.326;12.370;2023-07-31T04:47:26;16.01;92.17
71436;SHT31;59251;51.326;12.370;2023-07-31T04:49:54;15.98;92.32
71436;SHT31;59251;51.326;12.370;2023-07-31T04:52:21;15.90;93.36
71436;SHT31;59251;51.326;12.370;2023-07-31T04:54:47;15.83;93.87
71436;SHT31;59251;51.326;12.370;2023-07-31T04:57:14;15.83;94.12
71436;SHT31;59251;51.326;12.370;2023-07-31T04:59:41;15.71;94.56
71436;SHT31;59251;51.326;12.370;2023-07-31T05:02:08;15.73;95.32
71436;SHT31;59251;51.326;12.370;2023-07-31T05:04:35;15.60;95.95
71436;SHT31;59251;51.326;12.370;2023-07-31T05:07:03;15.56;95.54
71436;SHT31;59251;51.326;12.370;2023-07-31T05:09:30;15.60;95.51
71436;SHT31;59251;51.326;12.370;2023-07-31T05:11:57;15.65;95.50
71436;SHT31;59251;51.326;12.370;2023-07-31T05:14:24;15.65;95.59
71436;SHT31;59251;51.326;12.370;2023-07-31T05:16:50;15.59;96.17
71436;SHT31;59251;51.326;12.370;2023-07-31T05:19:17;15.62;96.18
71436;SHT31;59251;51.326;12.370;2023-07-31T05:21:44;15.58;96.56
71436;SHT31;59251;51.326;12.370;2023-07-31T05:24:12;15.66;95.96
71436;SHT31;59251;51.326;12.370;2023-07-31T05:26:38;15.59;97.01
71436;SHT31;59251;51.326;12.370;2023-07-31T05:29:05;15.52;97.46
71436;SHT31;59251;51.326;12.370;2023-07-31T05:31:32;15.58;97.46
71436;SHT31;59251;51.326;12.370;2023-07-31T05:33:58;15.59;97.15
71436;SHT31;59251;51.326;12.370;2023-07-31T05:36:25;15.63;96.52
71436;SHT31;59251;51.326;12.370;2023-07-31T05:38:52;15.59;97.17
71436;SHT31;59251;51.326;12.370;2023-07-31T05:41:20;15.69;96.44
71436;SHT31;59251;51.326;12.370;2023-07-31T05:43:46;15.74;96.47
71436;SHT31;59251;51.326;12.370;2023-07-31T05:46:13;15.80;95.86
71436;SHT31;59251;51.326;12.370;2023-07-31T05:48:40;15.77;95.71
71436;SHT31;59251;51.326;12.370;2023-07-31T05:51:06;15.69;96.90
71436;SHT31;59251;51.326;12.370;2023-07-31T05:53:33;15.70;96.43
71436;SHT31;59251;51.326;12.370;2023-07-31T05:56:01;15.83;95.93
71436;SHT31;59251;51.326;12.370;2023-07-31T05:58:29;15.87;95.91
71436;SHT31;59251;51.326;12.370;2023-07-31T06:00:56;15.85;95.73
71436;SHT31;59251;51.326;12.370;2023-07-31T06:03:22;15.93;94.90
71436;SHT31;59251;51.326;12.370;2023-07-31T06:05:49;16.03;94.67
71436;SHT31;59251;51.326;12.370;2023-07-31T06:08:16;15.98;94.88
71436;SHT31;59251;51.326;12.370;2023-07-31T06:10:42;16.04;94.42
71436;SHT31;59251;51.326;12.370;2023-07-31T06:13:09;16.03;94.46
71436;SHT31;59251;51.326;12.370;2023-07-31T06:15:37;16.11;94.47
71436;SHT31;59251;51.326;12.370;2023-07-31T06:18:04;16.11;94.42
71436;SHT31;59251;51.326;12.370;2023-07-31T06:20:33;16.11;94.39
71436;SHT31;59251;51.326;12.370;2023-07-31T06:22:59;16.18;93.95
71436;SHT31;59251;51.326;12.370;2023-07-31T06:25:26;16.27;93.85
71436;SHT31;59251;51.326;12.370;2023-07-31T06:27:53;16.32;93.41
71436;SHT31;59251;51.326;12.370;2023-07-31T06:30:20;16.38;93.42
71436;SHT31;59251;51.326;12.370;2023-07-31T06:32:48;16.47;92.98
71436;SHT31;59251;51.326;12.370;2023-07-31T06:35:14;16.49;92.85
71436;SHT31;59251;51.326;12.370;2023-07-31T06:37:41;16.52;93.42
71436;SHT31;59251;51.326;12.370;2023-07-31T06:40:10;16.54;92.74
71436;SHT31;59251;51.326;12.370;2023-07-31T06:42:37;16.49;93.29
71436;SHT31;59251;51.326;12.370;2023-07-31T06:45:04;16.62;92.64
71436;SHT31;59251;51.326;12.370;2023-07-31T06:47:31;16.54;92.83
71436;SHT31;59251;51.326;12.370;2023-07-31T06:49:59;16.61;92.79
71436;SHT31;59251;51.326;12.370;2023-07-31T06:52:26;16.64;92.77
71436;SHT31;59251;51.326;12.370;2023-07-31T06:55:01;16.65;92.67
71436;SHT31;59251;51.326;12.370;2023-07-31T06:57:29;16.65;92.23
71436;SHT31;59251;51.326;12.370;2023-07-31T06:59:55;16.66;92.59
71436;SHT31;59251;51.326;12.370;2023-07-31T07:02:22;16.80;91.64
71436;SHT31;59251;51.326;12.370;2023-07-31T07:04:49;16.79;91.56
71436;SHT31;59251;51.326;12.370;2023-07-31T07:07:18;16.86;91.12
71436;SHT31;59251;51.326;12.370;2023-07-31T07:09:44;16.82;91.31
71436;SHT31;59251;51.326;12.370;2023-07-31T07:12:11;16.83;91.61
71436;SHT31;59251;51.326;12.370;2023-07-31T07:14:38;16.86;91.02
71436;SHT31;59251;51.326;12.370;2023-07-31T07:17:05;17.03;90.28
71436;SHT31;59251;51.326;12.370;2023-07-31T07:19:32;17.06;90.22
71436;SHT31;59251;51.326;12.370;2023-07-31T07:21:58;17.09;89.75
71436;SHT31;59251;51.326;12.370;2023-07-31T07:24:28;17.06;89.88
71436;SHT31;59251;51.326;12.370;2023-07-31T07:26:55;17.23;89.58
71436;SHT31;59251;51.326;12.370;2023-07-31T07:29:22;17.23;89.26
71436;SHT31;59251;51.326;12.370;2023-07-31T07:31:51;17.34;88.76
71436;SHT31;59251;51.326;12.370;2023-07-31T07:34:17;17.34;88.95
71436;SHT31;59251;51.326;12.370;2023-07-31T07:36:44;17.41;88.54
71436;SHT31;59251;51.326;12.370;2023-07-31T07:39:11;17.44;88.45
71436;SHT31;59251;51.326;12.370;2023-07-31T07:41:39;17.48;88.05
71436;SHT31;59251;51.326;12.370;2023-07-31T07:44:06;17.67;87.89
71436;SHT31;59251;51.326;12.370;2023-07-31T07:46:32;17.85;87.54
71436;SHT31;59251;51.326;12.370;2023-07-31T07:48:59;17.90;86.98
71436;SHT31;59251;51.326;12.370;2023-07-31T07:51:26;17.95;87.26
71436;SHT31;59251;51.326;12.370;2023-07-31T07:53:55;18.02;87.04
71436;SHT31;59251;51.326;12.370;2023-07-31T07:56:22;18.06;86.97
71436;SHT31;59251;51.326;12.370;2023-07-31T07:58:50;18.12;86.22
71436;SHT31;59251;51.326;12.370;2023-07-31T08:01:17;18.08;86.84
71436;SHT31;59251;51.326;12.370;2023-07-31T08:03:44;18.20;85.90
71436;SHT31;59251;51.326;12.370;2023-07-31T08:06:11;18.17;85.95
71436;SHT31;59251;51.326;12.370;2023-07-31T08:08:38;18.34;85.51
71436;SHT31;59251;51.326;12.370;2023-07-31T08:11:05;18.41;85.30
71436;SHT31;59251;51.326;12.370;2023-07-31T08:13:31;18.38;85.42
71436;SHT31;59251;51.326;12.370;2023-07-31T08:15:59;18.41;85.52
71436;SHT31;59251;51.326;12.370;2023-07-31T08:18:26;18.43;85.67
71436;SHT31;59251;51.326;12.370;2023-07-31T08:20:53;18.51;84.91
71436;SHT31;59251;51.326;12.370;2023-07-31T08:23:20;18.72;84.44
71436;SHT31;59251;51.326;12.370;2023-07-31T08:25:46;18.74;84.73
71436;SHT31;59251;51.326;12.370;2023-07-31T08:28:15;18.88;83.95
71436;SHT31;59251;51.326;12.370;2023-07-31T08:30:41;18.92;83.43
71436;SHT31;59251;51.326;12.370;2023-07-31T08:33:09;19.26;82.34
71436;SHT31;59251;51.326;12.370;2023-07-31T08:35:36;19.19;82.67
71436;SHT31;59251;51.326;12.370;2023-07-31T08:38:03;19.32;81.75
71436;SHT31;59251;51.326;12.370;2023-07-31T08:40:29;19.56;82.01
71436;SHT31;59251;51.326;12.370;2023-07-31T08:42:56;19.53;81.58
71436;SHT31;59251;51.326;12.370;2023-07-31T08:45:27;19.75;80.73
71436;SHT31;59251;51.326;12.370;2023-07-31T08:47:55;19.71;80.88
71436;SHT31;59251;51.326;12.370;2023-07-31T08:50:24;19.82;80.63
71436;SHT31;59251;51.326;12.370;2023-07-31T08:52:51;19.85;80.74
71436;SHT31;59251;51.326;12.370;2023-07-31T08:55:19;19.95;80.09
71436;SHT31;59251;51.326;12.370;2023-07-31T08:57:50;19.85;80.75
71436;SHT31;59251;51.326;12.370;2023-07-31T09:00:18;19.40;81.52
71436;SHT31;59251;51.326;12.370;2023-07-31T09:02:48;19.66;80.85
71436;SHT31;59251;51.326;12.370;2023-07-31T09:05:18;19.74;80.68
71436;SHT31;59251;51.326;12.370;2023-07-31T09:07:47;19.88;80.45
71436;SHT31;59251;51.326;12.370;2023-07-31T09:10:15;19.95;80.42
71436;SHT31;59251;51.326;12.370;2023-07-31T09:12:42;19.84;80.74
71436;SHT31;59251;51.326;12.370;2023-07-31T09:15:11;19.78;80.73
71436;SHT31;59251;51.326;12.370;2023-07-31T09:17:37;19.74;80.87
71436;SHT31;59251;51.326;12.370;2023-07-31T09:20:14;19.92;80.50
71436;SHT31;59251;51.326;12.370;2023-07-31T09:22:42;19.71;81.59
71436;SHT31;59251;51.326;12.370;2023-07-31T09:25:17;19.70;82.22
71436;SHT31;59251;51.326;12.370;2023-07-31T09:27:49;19.46;82.58
71436;SHT31;59251;51.326;12.370;2023-07-31T09:30:16;19.51;82.55
71436;SHT31;59251;51.326;12.370;2023-07-31T09:32:43;19.63;82.30
71436;SHT31;59251;51.326;12.370;2023-07-31T09:35:18;19.69;81.49
71436;SHT31;59251;51.326;12.370;2023-07-31T09:37:49;19.59;81.43
71436;SHT31;59251;51.326;12.370;2023-07-31T09:40:26;19.57;81.49
71436;SHT31;59251;51.326;12.370;2023-07-31T09:42:55;19.50;81.67
71436;SHT31;59251;51.326;12.370;2023-07-31T09:45:22;19.46;81.51
71436;SHT31;59251;51.326;12.370;2023-07-31T09:47:49;19.50;81.01
71436;SHT31;59251;51.326;12.370;2023-07-31T09:50:16;19.69;80.45
71436;SHT31;59251;51.326;12.370;2023-07-31T09:52:43;19.69;80.28
71436;SHT31;59251;51.326;12.370;2023-07-31T09:55:10;19.90;79.66
71436;SHT31;59251;51.326;12.370;2023-07-31T09:57:40;20.05;79.19
71436;SHT31;59251;51.326;12.370;2023-07-31T10:00:09;19.88;80.14
71436;SHT31;59251;51.326;12.370;2023-07-31T10:02:40;20.04;80.09
71436;SHT31;59251;51.326;12.370;2023-07-31T10:05:08;19.84;82.15
71436;SHT31;59251;51.326;12.370;2023-07-31T10:07:37;19.77;82.67
71436;SHT31;59251;51.326;12.370;2023-07-31T10:10:07;19.78;82.48
71436;SHT31;59251;51.326;12.370;2023-07-31T10:12:34;20.14;81.15
71436;SHT31;59251;51.326;12.370;2023-07-31T10:15:04;20.39;81.50
71436;SHT31;59251;51.326;12.370;2023-07-31T10:17:31;20.75;79.65
71436;SHT31;59251;51.326;12.370;2023-07-31T10:19:58;21.00;78.51
71436;SHT31;59251;51.326;12.370;2023-07-31T10:22:27;21.17;79.37
71436;SHT31;59251;51.326;12.370;2023-07-31T10:24:55;21.32;77.44
71436;SHT31;59251;51.326;12.370;2023-07-31T10:27:24;21.35;77.07
71436;SHT31;59251;51.326;12.370;2023-07-31T10:29:52;21.08;77.54
71436;SHT31;59251;51.326;12.370;2023-07-31T10:32:21;21.05;78.04
71436;SHT31;59251;51.326;12.370;2023-07-31T10:34:49;21.05;76.91
71436;SHT31;59251;51.326;12.370;2023-07-31T10:37:23;20.90;77.79
71436;SHT31;59251;51.326;12.370;2023-07-31T10:39:58;20.93;77.18
71436;SHT31;59251;51.326;12.370;2023-07-31T10:42:29;21.05;77.40
71436;SHT31;59251;51.326;12.370;2023-07-31T10:44:58;21.22;76.76
71436;SHT31;59251;51.326;12.370;2023-07-31T10:47:26;20.84;77.73
71436;SHT31;59251;51.326;12.370;2023-07-31T10:50:11;21.08;77.41
71436;SHT31;59251;51.326;12.370;2023-07-31T10:52:38;20.97;77.29
71436;SHT31;59251;51.326;12.370;2023-07-31T10:55:16;21.17;76.95
71436;SHT31;59251;51.326;12.370;2023-07-31T10:57:44;21.45;75.13
71436;SHT31;59251;51.326;12.370;2023-07-31T11:00:21;21.80;74.74
71436;SHT31;59251;51.326;12.370;2023-07-31T11:03:01;21.85;74.14
71436;SHT31;59251;51.326;12.370;2023-07-31T11:05:42;22.00;74.06
71436;SHT31;59251;51.326;12.370;2023-07-31T11:08:13;21.90;74.26
71436;SHT31;59251;51.326;12.370;2023-07-31T11:10:40;21.78;73.85
71436;SHT31;59251;51.326;12.370;2023-07-31T11:13:07;21.75;74.04
71436;SHT31;59251;51.326;12.370;2023-07-31T11:15:34;22.04;74.11
71436;SHT31;59251;51.326;12.370;2023-07-31T11:18:02;22.18;72.72
71436;SHT31;59251;51.326;12.370;2023-07-31T11:20:31;22.24;72.28
71436;SHT31;59251;51.326;12.370;2023-07-31T11:22:59;22.25;72.22
71436;SHT31;59251;51.326;12.370;2023-07-31T11:25:28;22.18;72.62
71436;SHT31;59251;51.326;12.370;2023-07-31T11:27:55;22.55;72.05
71436;SHT31;59251;51.326;12.370;2023-07-31T11:30:22;22.65;70.93
71436;SHT31;59251;51.326;12.370;2023-07-31T11:32:49;22.49;72.07
71436;SHT31;59251;51.326;12.370;2023-07-31T11:35:18;22.22;71.93
71436;SHT31;59251;51.326;12.370;2023-07-31T11:37:44;22.40;72.57
71436;SHT31;59251;51.326;12.370;2023-07-31T11:40:12;22.58;72.76
71436;SHT31;59251;51.326;12.370;2023-07-31T11:42:39;22.57;72.22
71436;SHT31;59251;51.326;12.370;2023-07-31T11:45:06;22.25;73.14
71436;SHT31;59251;51.326;12.370;2023-07-31T11:47:34;22.36;72.31
71436;SHT31;59251;51.326;12.370;2023-07-31T11:50:01;22.18;72.77
71436;SHT31;59251;51.326;12.370;2023-07-31T11:52:32;22.28;72.74
71436;SHT31;59251;51.326;12.370;2023-07-31T11:55:00;22.24;72.18
71436;SHT31;59251;51.326;12.370;2023-07-31T11:57:27;22.31;72.35
71436;SHT31;59251;51.326;12.370;2023-07-31T11:59:55;22.17;73.89
71436;SHT31;59251;51.326;12.370;2023-07-31T12:02:22;22.11;74.16
71436;SHT31;59251;51.326;12.370;2023-07-31T12:04:49;22.09;74.21
71436;SHT31;59251;51.326;12.370;2023-07-31T12:07:16;22.07;73.97
71436;SHT31;59251;51.326;12.370;2023-07-31T12:09:52;22.13;74.10
71436;SHT31;59251;51.326;12.370;2023-07-31T12:12:20;22.36;72.87
71436;SHT31;59251;51.326;12.370;2023-07-31T12:14:48;22.20;72.57
71436;SHT31;59251;51.326;12.370;2023-07-31T12:17:17;22.20;72.56
71436;SHT31;59251;51.326;12.370;2023-07-31T12:19:44;22.22;71.30
71436;SHT31;59251;51.326;12.370;2023-07-31T12:22:11;22.28;71.55
71436;SHT31;59251;51.326;12.370;2023-07-31T12:24:39;22.51;71.05
71436;SHT31;59251;51.326;12.370;2023-07-31T12:27:10;22.55;70.82
71436;SHT31;59251;51.326;12.370;2023-07-31T12:29:38;22.57;70.03
71436;SHT31;59251;51.326;12.370;2023-07-31T12:32:05;22.31;71.08
71436;SHT31;59251;51.326;12.370;2023-07-31T12:34:44;22.61;70.34
71436;SHT31;59251;51.326;12.370;2023-07-31T12:37:11;22.98;69.76
71436;SHT31;59251;51.326;12.370;2023-07-31T12:39:37;23.27;69.47
71436;SHT31;59251;51.326;12.370;2023-07-31T12:42:05;23.02;70.15
71436;SHT31;59251;51.326;12.370;2023-07-31T12:44:33;23.27;69.96
71436;SHT31;59251;51.326;12.370;2023-07-31T12:47:00;23.12;69.88
71436;SHT31;59251;51.326;12.370;2023-07-31T12:49:26;23.77;68.79
71436;SHT31;59251;51.326;12.370;2023-07-31T12:51:53;23.85;68.38
71436;SHT31;59251;51.326;12.370;2023-07-31T12:54:20;23.79;68.84
71436;SHT31;59251;51.326;12.370;2023-07-31T12:56:47;23.74;69.19
71436;SHT31;59251;51.326;12.370;2023-07-31T12:59:13;23.79;68.96
71436;SHT31;59251;51.326;12.370;2023-07-31T13:01:42;23.44;69.60
71436;SHT31;59251;51.326;12.370;2023-07-31T13:04:08;24.46;66.91
71436;SHT31;59251;51.326;12.370;2023-07-31T13:06:35;25.01;66.06
71436;SHT31;59251;51.326;12.370;2023-07-31T13:09:02;25.26;65.69
71436;SHT31;59251;51.326;12.370;2023-07-31T13:11:29;25.36;65.86
71436;SHT31;59251;51.326;12.370;2023-07-31T13:13:56;25.39;65.56
71436;SHT31;59251;51.326;12.370;2023-07-31T13:16:23;24.91;66.17
71436;SHT31;59251;51.326;12.370;2023-07-31T13:18:51;24.61;66.19
71436;SHT31;59251;51.326;12.370;2023-07-31T13:21:18;23.88;65.91
71436;SHT31;59251;51.326;12.370;2023-07-31T13:23:47;24.06;65.01
71436;SHT31;59251;51.326;12.370;2023-07-31T13:26:13;24.90;63.12
71436;SHT31;59251;51.326;12.370;2023-07-31T13:28:40;26.80;59.61
71436;SHT31;59251;51.326;12.370;2023-07-31T13:31:07;27.04;57.76
71436;SHT31;59251;51.326;12.370;2023-07-31T13:33:33;26.20;59.40
71436;SHT31;59251;51.326;12.370;2023-07-31T13:36:01;26.37;59.85
71436;SHT31;59251;51.326;12.370;2023-07-31T13:38:28;27.43;56.71
71436;SHT31;59251;51.326;12.370;2023-07-31T13:40:55;27.06;57.51
71436;SHT31;59251;51.326;12.370;2023-07-31T13:43:22;26.65;58.32
71436;SHT31;59251;51.326;12.370;2023-07-31T13:45:48;25.29;61.13
71436;SHT31;59251;51.326;12.370;2023-07-31T13:48:15;24.63;62.59
71436;SHT31;59251;51.326;12.370;2023-07-31T13:50:42;24.41;63.65
71436;SHT31;59251;51.326;12.370;2023-07-31T13:53:10;23.79;64.18
71436;SHT31;59251;51.326;12.370;2023-07-31T13:55:37;23.86;64.86
71436;SHT31;59251;51.326;12.370;2023-07-31T13:58:03;23.74;65.10
71436;SHT31;59251;51.326;12.370;2023-07-31T14:00:30;23.78;65.01
71436;SHT31;59251;51.326;12.370;2023-07-31T14:02:57;23.57;65.82
71436;SHT31;59251;51.326;12.370;2023-07-31T14:05:23;23.44;66.03
71436;SHT31;59251;51.326;12.370;2023-07-31T14:07:50;23.05;67.14
71436;SHT31;59251;51.326;12.370;2023-07-31T14:10:18;22.84;68.14
71436;SHT31;59251;51.326;12.370;2023-07-31T14:12:45;22.73;68.51
71436;SHT31;59251;51.326;12.370;2023-07-31T14:15:12;22.68;68.19
71436;SHT31;59251;51.326;12.370;2023-07-31T14:17:38;22.43;68.19
71436;SHT31;59251;51.326;12.370;2023-07-31T14:20:07;22.33;68.59
71436;SHT31;59251;51.326;12.370;2023-07-31T14:22:33;22.25;69.40
71436;SHT31;59251;51.326;12.370;2023-07-31T14:25:01;22.30;69.30
71436;SHT31;59251;51.326;12.370;2023-07-31T14:27:29;22.47;69.08
71436;SHT31;59251;51.326;12.370;2023-07-31T14:29:56;22.51;69.13
71436;SHT31;59251;51.326;12.370;2023-07-31T14:32:23;22.48;69.27
71436;SHT31;59251;51.326;12.370;2023-07-31T14:34:50;22.65;68.85
71436;SHT31;59251;51.326;12.370;2023-07-31T14:37:17;22.84;68.51
71436;SHT31;59251;51.326;12.370;2023-07-31T14:39:44;22.65;68.61
71436;SHT31;59251;51.326;12.370;2023-07-31T14:42:10;22.79;68.33
71436;SHT31;59251;51.326;12.370;2023-07-31T14:44:38;22.73;67.84
71436;SHT31;59251;51.326;12.370;2023-07-31T14:47:05;22.62;67.82
71436;SHT31;59251;51.326;12.370;2023-07-31T14:49:32;22.49;67.94
71436;SHT31;59251;51.326;12.370;2023-07-31T14:51:59;22.47;68.11
71436;SHT31;59251;51.326;12.370;2023-07-31T14:54:25;22.40;68.41
71436;SHT31;59251;51.326;12.370;2023-07-31T14:56:52;22.17;68.27
71436;SHT31;59251;51.326;12.370;2023-07-31T14:59:19;22.07;68.62
71436;SHT31;59251;51.326;12.370;2023-07-31T15:01:47;22.10;68.67
71436;SHT31;59251;51.326;12.370;2023-07-31T15:04:13;22.10;68.55
71436;SHT31;59251;51.326;12.370;2023-07-31T15:06:40;22.06;68.43
71436;SHT31;59251;51.326;12.370;2023-07-31T15:09:07;22.10;68.23
71436;SHT31;59251;51.326;12.370;2023-07-31T15:11:34;22.20;68.35
71436;SHT31;59251;51.326;12.370;2023-07-31T15:14:00;22.38;68.47
71436;SHT31;59251;51.326;12.370;2023-07-31T15:16:27;22.45;68.35
71436;SHT31;59251;51.326;12.370;2023-07-31T15:18:58;22.33;68.57